sensor_id;sensor_type;location;lat;lon;timestamp;temperature;humidity
20246;DHT22;10281;54.406;18.556;2024-01-25T00:00:58;5.80;99.90
20246;DHT22;10281;54.406;18.556;2024-01-25T00:03:24;5.70;99.90
20246;DHT22;10281;54.406;18.556;2024-01-25T00:05:51;5.70;99.90
20246;DHT22;10281;54.406;18.556;2024-01-25T00:08:17;5.70;99.90
20246;DHT22;10281;54.406;18.556;2024-01-25T00:10:44;5.70;99.90
20246;DHT22;10281;54.406;18.556;2024-01-25T00:13:10;5.70;99.90
20246;DHT22;10281;54.406;18.556;2024-01-25T00:15:37;5.70;99.90
20246;DHT22;10281;54.406;18.556;2024-01-25T00:18:04;5.70;99.90
20246;DHT22;10281;54.406;18.556;2024-01-25T00:20:31;5.70;99.90
20246;DHT22;10281;54.406;18.556;2024-01-25T00:22:57;5.70;99.90
20246;DHT22;10281;54.406;18.556;2024-01-25T00:25:24;5.70;99.90
20246;DHT22;10281;54.406;18.556;2024-01-25T00:27:51;5.70;99.90
20246;DHT22;10281;54.406;18.556;2024-01-25T00:30:18;5.70;99.90
20246;DHT22;10281;54.406;18.556;2024-01-25T00:32:45;5.70;99.90
20246;DHT22;10281;54.406;18.556;2024-01-25T00:35:12;5.70;99.90
20246;DHT22;10281;54.406;18.556;2024-01-25T00:37:40;5.70;99.90
20246;DHT22;10281;54.406;18.556;2024-01-25T00:40:07;5.70;99.90
20246;DHT22;10281;54.406;18.556;2024-01-25T00:42:41;5.70;99.90
20246;DHT22;10281;54.406;18.556;2024-01-25T00:45:09;5.70;99.90
20246;DHT22;10281;54.406;18.556;2024-01-25T00:47:37;5.70;99.90
20246;DHT22;10281;54.406;18.556;2024-01-25T00:50:04;5.70;99.90
20246;DHT22;10281;54.406;18.556;2024-01-25T00:52:32;5.70;99.90
20246;DHT22;10281;54.406;18.556;2024-01-25T00:54:59;5.70;99.90
20246;DHT22;10281;54.406;18.556;2024-01-25T00:57:26;5.60;99.90
20246;DHT22;10281;54.406;18.556;2024-01-25T00:59:53;5.60;99.90
20246;DHT22;10281;54.406;18.556;2024-01-25T01:02:22;5.60;99.90
20246;DHT22;10281;54.406;18.556;2024-01-25T01:04:49;5.60;99.90
20246;DHT22;10281;54.406;18.556;2024-01-25T01:07:16;5.60;99.90
20246;DHT22;10281;54.406;18.556;2024-01-25T01:09:43;5.60;99.90
20246;DHT22;10281;54.406;18.556;2024-01-25T01:12:09;5.60;99.90
20246;DHT22;10281;54.406;18.556;2024-01-25T01:14:36;5.60;99.90
20246;DHT22;10281;54.406;18.556;2024-01-25T01:17:03;5.60;99.90
20246;DHT22;10281;54.406;18.556;2024-01-25T01:19:29;5.60;99.90
20246;DHT22;10281;54.406;18.556;2024-01-25T01:21:56;5.60;99.90
20246;DHT22;10281;54.406;18.556;2024-01-25T01:24:23;5.60;99.90
20246;DHT22;10281;54.406;18.556;2024-01-25T01:26:49;5.60;99.90
20246;DHT22;10281;54.406;18.556;2024-01-25T01:29:17;5.60;99.90
20246;DHT22;10281;54.406;18.556;2024-01-25T01:31:44;5.60;99.90
20246;DHT22;10281;54.406;18.556;2024-01-25T01:34:11;5.50;99.90
20246;DHT22;10281;54.406;18.556;2024-01-25T01:36:39;5.50;99.90
20246;DHT22;10281;54.406;18.556;2024-01-25T01:39:06;5.50;99.90
20246;DHT22;10281;54.406;18.556;2024-01-25T01:41:33;5.50;99.90
20246;DHT22;10281;54.406;18.556;2024-01-25T01:43:59;5.50;99.90
20246;DHT22;10281;54.406;18.556;2024-01-25T01:46:34;5.40;99.90
20246;DHT22;10281;54.406;18.556;2024-01-25T01:49:04;5.40;99.90
20246;DHT22;10281;54.406;18.556;2024-01-25T01:51:32;5.40;99.90
20246;DHT22;10281;54.406;18.556;2024-01-25T01:54:01;5.40;99.90
20246;DHT22;10281;54.406;18.556;2024-01-25T01:56:29;5.40;99.90
20246;DHT22;10281;54.406;18.556;2024-01-25T01:59:00;5.40;99.90
20246;DHT22;10281;54.406;18.556;2024-01-25T02:01:28;5.40;99.90
20246;DHT22;10281;54.406;18.556;2024-01-25T02:03:54;5.40;99.90
20246;DHT22;10281;54.406;18.556;2024-01-25T02:06:22;5.40;99.90
20246;DHT22;10281;54.406;18.556;2024-01-25T02:08:50;5.30;99.90
20246;DHT22;10281;54.406;18.556;2024-01-25T02:11:17;5.30;99.90
20246;DHT22;10281;54.406;18.556;2024-01-25T02:13:44;5.30;99.90
20246;DHT22;10281;54.406;18.556;2024-01-25T02:16:11;5.30;99.90
20246;DHT22;10281;54.406;18.556;2024-01-25T02:18:38;5.30;99.90
20246;DHT22;10281;54.406;18.556;2024-01-25T02:21:05;5.30;99.90
20246;DHT22;10281;54.406;18.556;2024-01-25T02:23:32;5.30;99.90
20246;DHT22;10281;54.406;18.556;2024-01-25T02:25:59;5.20;99.90
20246;DHT22;10281;54.406;18.556;2024-01-25T02:28:25;5.20;99.90
20246;DHT22;10281;54.406;18.556;2024-01-25T02:30:53;5.20;99.90
20246;DHT22;10281;54.406;18.556;2024-01-25T02:33:19;5.20;99.90
20246;DHT22;10281;54.406;18.556;2024-01-25T02:35:46;5.10;99.90
20246;DHT22;10281;54.406;18.556;2024-01-25T02:38:13;5.20;99.90
20246;DHT22;10281;54.406;18.556;2024-01-25T02:40:40;5.10;99.90
20246;DHT22;10281;54.406;18.556;2024-01-25T02:43:06;5.10;99.90
20246;DHT22;10281;54.406;18.556;2024-01-25T02:45:33;5.10;99.90
20246;DHT22;10281;54.406;18.556;2024-01-25T02:48:00;5.10;99.90
20246;DHT22;10281;54.406;18.556;2024-01-25T02:50:28;5.10;99.90
20246;DHT22;10281;54.406;18.556;2024-01-25T02:52:54;5.10;99.90
20246;DHT22;10281;54.406;18.556;2024-01-25T02:55:21;5.10;99.90
20246;DHT22;10281;54.406;18.556;2024-01-25T02:57:48;5.10;99.90
20246;DHT22;10281;54.406;18.556;2024-01-25T03:00:15;5.10;99.90
20246;DHT22;10281;54.406;18.556;2024-01-25T03:02:42;5.10;99.90
20246;DHT22;10281;54.406;18.556;2024-01-25T03:05:08;5.10;99.90
20246;DHT22;10281;54.406;18.556;2024-01-25T03:07:35;5.20;99.90
20246;DHT22;10281;54.406;18.556;2024-01-25T03:10:02;5.20;99.90
20246;DHT22;10281;54.406;18.556;2024-01-25T03:12:28;5.20;99.90
20246;DHT22;10281;54.406;18.556;2024-01-25T03:14:55;5.20;99.90
20246;DHT22;10281;54.406;18.556;2024-01-25T03:17:21;5.20;99.90
20246;DHT22;10281;54.406;18.556;2024-01-25T03:19:48;5.20;99.90
20246;DHT22;10281;54.406;18.556;2024-01-25T03:22:15;5.20;99.90
20246;DHT22;10281;54.406;18.556;2024-01-25T03:24:41;5.20;99.90
20246;DHT22;10281;54.406;18.556;2024-01-25T03:27:08;5.20;99.90
20246;DHT22;10281;54.406;18.556;2024-01-25T03:29:37;5.20;99.90
20246;DHT22;10281;54.406;18.556;2024-01-25T03:32:04;5.20;99.90
20246;DHT22;10281;54.406;18.556;2024-01-25T03:34:31;5.20;99.90
20246;DHT22;10281;54.406;18.556;2024-01-25T03:36:58;5.20;99.90
20246;DHT22;10281;54.406;18.556;2024-01-25T03:39:25;5.20;99.90
20246;DHT22;10281;54.406;18.556;2024-01-25T03:41:52;5.20;99.90
20246;DHT22;10281;54.406;18.556;2024-01-25T03:44:18;5.20;99.90
20246;DHT22;10281;54.406;18.556;2024-01-25T03:46:45;5.20;99.90
20246;DHT22;10281;54.406;18.556;2024-01-25T03:49:11;5.20;99.90
20246;DHT22;10281;54.406;18.556;2024-01-25T03:51:38;5.10;99.90
20246;DHT22;10281;54.406;18.556;2024-01-25T03:54:05;5.10;99.90
20246;DHT22;10281;54.406;18.556;2024-01-25T03:56:31;5.10;99.90
20246;DHT22;10281;54.406;18.556;2024-01-25T03:58:58;5.10;99.90
20246;DHT22;10281;54.406;18.556;2024-01-25T04:01:24;5.10;99.90
20246;DHT22;10281;54.406;18.556;2024-01-25T04:03:51;5.10;99.90
20246;DHT22;10281;54.406;18.556;2024-01-25T04:06:18;5.10;99.90
20246;DHT22;10281;54.406;18.556;2024-01-25T04:08:45;5.10;99.90
20246;DHT22;10281;54.406;18.556;2024-01-25T04:11:12;5.10;99.90
20246;DHT22;10281;54.406;18.556;2024-01-25T04:13:40;5.10;99.90
20246;DHT22;10281;54.406;18.556;2024-01-25T04:16:07;5.10;99.90
20246;DHT22;10281;54.406;18.556;2024-01-25T04:18:33;5.10;99.90
20246;DHT22;10281;54.406;18.556;2024-01-25T04:21:00;5.10;99.90
20246;DHT22;10281;54.406;18.556;2024-01-25T04:23:27;5.10;99.90
20246;DHT22;10281;54.406;18.556;2024-01-25T04:25:53;5.10;99.90
20246;DHT22;10281;54.406;18.556;2024-01-25T04:28:21;5.10;99.90
20246;DHT22;10281;54.406;18.556;2024-01-25T04:30:47;5.10;99.90
20246;DHT22;10281;54.406;18.556;2024-01-25T04:33:14;5.10;99.90
20246;DHT22;10281;54.406;18.556;2024-01-25T04:35:41;5.20;99.90
20246;DHT22;10281;54.406;18.556;2024-01-25T04:38:07;5.20;99.90
20246;DHT22;10281;54.406;18.556;2024-01-25T04:40:34;5.20;99.90
20246;DHT22;10281;54.406;18.556;2024-01-25T04:43:00;5.20;99.90
20246;DHT22;10281;54.406;18.556;2024-01-25T04:45:27;5.20;99.90
20246;DHT22;10281;54.406;18.556;2024-01-25T04:47:54;5.10;99.90
20246;DHT22;10281;54.406;18.556;2024-01-25T04:50:20;5.10;99.90
20246;DHT22;10281;54.406;18.556;2024-01-25T04:52:47;5.10;99.90
20246;DHT22;10281;54.406;18.556;2024-01-25T04:55:13;5.20;99.90
20246;DHT22;10281;54.406;18.556;2024-01-25T04:57:40;5.10;99.90
20246;DHT22;10281;54.406;18.556;2024-01-25T05:00:07;5.20;99.90
20246;DHT22;10281;54.406;18.556;2024-01-25T05:02:34;5.10;99.90
20246;DHT22;10281;54.406;18.556;2024-01-25T05:05:01;5.10;99.90
20246;DHT22;10281;54.406;18.556;2024-01-25T05:07:27;5.10;99.90
20246;DHT22;10281;54.406;18.556;2024-01-25T05:09:54;5.10;99.90
20246;DHT22;10281;54.406;18.556;2024-01-25T05:12:20;5.10;99.90
20246;DHT22;10281;54.406;18.556;2024-01-25T05:14:47;5.20;99.90
20246;DHT22;10281;54.406;18.556;2024-01-25T05:17:14;5.10;99.90
20246;DHT22;10281;54.406;18.556;2024-01-25T05:19:41;5.20;99.90
20246;DHT22;10281;54.406;18.556;2024-01-25T05:22:07;5.20;99.90
20246;DHT22;10281;54.406;18.556;2024-01-25T05:24:34;5.20;99.90
20246;DHT22;10281;54.406;18.556;2024-01-25T05:27:01;5.20;99.90
20246;DHT22;10281;54.406;18.556;2024-01-25T05:29:28;5.20;99.90
20246;DHT22;10281;54.406;18.556;2024-01-25T05:31:54;5.20;99.90
20246;DHT22;10281;54.406;18.556;2024-01-25T05:34:21;5.20;99.90
20246;DHT22;10281;54.406;18.556;2024-01-25T05:36:48;5.20;99.90
20246;DHT22;10281;54.406;18.556;2024-01-25T05:39:15;5.30;99.90
20246;DHT22;10281;54.406;18.556;2024-01-25T05:41:42;5.30;99.90
20246;DHT22;10281;54.406;18.556;2024-01-25T05:44:13;5.30;99.90
20246;DHT22;10281;54.406;18.556;2024-01-25T05:46:39;5.30;99.90
20246;DHT22;10281;54.406;18.556;2024-01-25T05:49:06;5.30;99.90
20246;DHT22;10281;54.406;18.556;2024-01-25T05:51:32;5.30;99.90
20246;DHT22;10281;54.406;18.556;2024-01-25T05:53:59;5.30;99.90
20246;DHT22;10281;54.406;18.556;2024-01-25T05:56:26;5.30;99.90
20246;DHT22;10281;54.406;18.556;2024-01-25T05:58:53;5.30;99.90
20246;DHT22;10281;54.406;18.556;2024-01-25T06:01:19;5.30;99.90
20246;DHT22;10281;54.406;18.556;2024-01-25T06:03:46;5.30;99.90
20246;DHT22;10281;54.406;18.556;2024-01-25T06:06:13;5.30;99.90
20246;DHT22;10281;54.406;18.556;2024-01-25T06:08:39;5.30;99.90
20246;DHT22;10281;54.406;18.556;2024-01-25T06:11:06;5.30;99.90
20246;DHT22;10281;54.406;18.556;2024-01-25T06:13:33;5.30;99.90
20246;DHT22;10281;54.406;18.556;2024-01-25T06:15:59;5.30;99.90
20246;DHT22;10281;54.406;18.556;2024-01-25T06:18:26;5.40;99.90
20246;DHT22;10281;54.406;18.556;2024-01-25T06:20:53;5.30;99.90
20246;DHT22;10281;54.406;18.556;2024-01-25T06:23:20;5.40;99.90
20246;DHT22;10281;54.406;18.556;2024-01-25T06:25:46;5.40;99.90
20246;DHT22;10281;54.406;18.556;2024-01-25T06:28:13;5.40;99.90
20246;DHT22;10281;54.406;18.556;2024-01-25T06:30:40;5.40;99.90
20246;DHT22;10281;54.406;18.556;2024-01-25T06:33:06;5.40;99.90
20246;DHT22;10281;54.406;18.556;2024-01-25T06:35:33;5.30;99.90
20246;DHT22;10281;54.406;18.556;2024-01-25T06:38:00;5.30;99.90
20246;DHT22;10281;54.406;18.556;2024-01-25T06:40:26;5.40;99.90
20246;DHT22;10281;54.406;18.556;2024-01-25T06:42:53;5.40;99.90
20246;DHT22;10281;54.406;18.556;2024-01-25T06:45:20;5.40;99.90
20246;DHT22;10281;54.406;18.556;2024-01-25T06:47:47;5.40;99.90
20246;DHT22;10281;54.406;18.556;2024-01-25T06:50:14;5.40;99.90
20246;DHT22;10281;54.406;18.556;2024-01-25T06:52:40;5.40;99.90
20246;DHT22;10281;54.406;18.556;2024-01-25T06:55:07;5.50;99.90
20246;DHT22;10281;54.406;18.556;2024-01-25T06:57:34;5.50;99.90
20246;DHT22;10281;54.406;18.556;2024-01-25T07:00:01;5.40;99.90
20246;DHT22;10281;54.406;18.556;2024-01-25T07:02:28;5.50;99.90
20246;DHT22;10281;54.406;18.556;2024-01-25T07:04:54;5.40;99.90
20246;DHT22;10281;54.406;18.556;2024-01-25T07:07:21;5.40;99.90
20246;DHT22;10281;54.406;18.556;2024-01-25T07:09:48;5.40;99.90
20246;DHT22;10281;54.406;18.556;2024-01-25T07:12:14;5.40;99.90
20246;DHT22;10281;54.406;18.556;2024-01-25T07:14:41;5.30;99.90
20246;DHT22;10281;54.406;18.556;2024-01-25T07:17:08;5.30;99.90
20246;DHT22;10281;54.406;18.556;2024-01-25T07:19:34;5.10;99.90
20246;DHT22;10281;54.406;18.556;2024-01-25T07:22:01;5.00;99.90
20246;DHT22;10281;54.406;18.556;2024-01-25T07:24:27;4.70;99.90
20246;DHT22;10281;54.406;18.556;2024-01-25T07:26:54;4.60;99.90
20246;DHT22;10281;54.406;18.556;2024-01-25T07:29:21;4.50;99.90
20246;DHT22;10281;54.406;18.556;2024-01-25T07:31:47;4.50;99.90
20246;DHT22;10281;54.406;18.556;2024-01-25T07:34:14;4.40;99.90
20246;DHT22;10281;54.406;18.556;2024-01-25T07:36:40;4.30;99.90
20246;DHT22;10281;54.406;18.556;2024-01-25T07:39:07;4.30;99.90
20246;DHT22;10281;54.406;18.556;2024-01-25T07:41:34;4.20;99.90
20246;DHT22;10281;54.406;18.556;2024-01-25T07:44:01;4.20;99.90
20246;DHT22;10281;54.406;18.556;2024-01-25T07:46:27;4.30;99.90
20246;DHT22;10281;54.406;18.556;2024-01-25T07:48:54;4.20;99.90
20246;DHT22;10281;54.406;18.556;2024-01-25T07:51:20;4.10;99.90
20246;DHT22;10281;54.406;18.556;2024-01-25T07:53:47;4.10;99.90
20246;DHT22;10281;54.406;18.556;2024-01-25T07:56:13;4.20;99.90
20246;DHT22;10281;54.406;18.556;2024-01-25T07:58:40;4.10;99.90
20246;DHT22;10281;54.406;18.556;2024-01-25T08:01:07;4.00;99.90
20246;DHT22;10281;54.406;18.556;2024-01-25T08:03:33;4.10;99.90
20246;DHT22;10281;54.406;18.556;2024-01-25T08:06:01;4.00;99.90
20246;DHT22;10281;54.406;18.556;2024-01-25T08:08:28;3.80;99.90
20246;DHT22;10281;54.406;18.556;2024-01-25T08:10:55;3.70;99.90
20246;DHT22;10281;54.406;18.556;2024-01-25T08:13:22;3.60;99.90
20246;DHT22;10281;54.406;18.556;2024-01-25T08:15:48;3.50;99.90
20246;DHT22;10281;54.406;18.556;2024-01-25T08:18:16;3.50;99.90
20246;DHT22;10281;54.406;18.556;2024-01-25T08:20:44;3.50;99.90
20246;DHT22;10281;54.406;18.556;2024-01-25T08:23:11;3.50;99.90
20246;DHT22;10281;54.406;18.556;2024-01-25T08:25:39;3.50;99.90
20246;DHT22;10281;54.406;18.556;2024-01-25T08:28:06;3.40;99.90
20246;DHT22;10281;54.406;18.556;2024-01-25T08:30:32;3.40;99.90
20246;DHT22;10281;54.406;18.556;2024-01-25T08:32:59;3.30;99.90
20246;DHT22;10281;54.406;18.556;2024-01-25T08:35:26;3.20;99.90
20246;DHT22;10281;54.406;18.556;2024-01-25T08:37:53;3.20;99.90
20246;DHT22;10281;54.406;18.556;2024-01-25T08:40:19;3.20;99.90
20246;DHT22;10281;54.406;18.556;2024-01-25T08:42:46;3.30;99.90
20246;DHT22;10281;54.406;18.556;2024-01-25T08:45:13;3.20;99.90
20246;DHT22;10281;54.406;18.556;2024-01-25T08:47:39;3.30;99.90
20246;DHT22;10281;54.406;18.556;2024-01-25T08:50:07;3.30;99.90
20246;DHT22;10281;54.406;18.556;2024-01-25T08:52:37;3.20;99.90
20246;DHT22;10281;54.406;18.556;2024-01-25T08:55:04;3.20;99.90
20246;DHT22;10281;54.406;18.556;2024-01-25T08:57:31;3.10;99.90
20246;DHT22;10281;54.406;18.556;2024-01-25T08:59:58;3.20;99.90
20246;DHT22;10281;54.406;18.556;2024-01-25T09:02:25;3.20;99.90
20246;DHT22;10281;54.406;18.556;2024-01-25T09:04:53;3.20;99.90
20246;DHT22;10281;54.406;18.556;2024-01-25T09:07:20;3.20;99.90
20246;DHT22;10281;54.406;18.556;2024-01-25T09:09:47;3.20;99.90
20246;DHT22;10281;54.406;18.556;2024-01-25T09:12:14;3.30;99.90
20246;DHT22;10281;54.406;18.556;2024-01-25T09:14:41;3.30;99.90
20246;DHT22;10281;54.406;18.556;2024-01-25T09:17:09;3.30;99.90
20246;DHT22;10281;54.406;18.556;2024-01-25T09:19:35;3.30;99.90
20246;DHT22;10281;54.406;18.556;2024-01-25T09:22:03;3.30;99.90
20246;DHT22;10281;54.406;18.556;2024-01-25T09:24:30;3.40;99.90
20246;DHT22;10281;54.406;18.556;2024-01-25T09:26:57;3.40;99.90
20246;DHT22;10281;54.406;18.556;2024-01-25T09:29:25;3.30;99.90
20246;DHT22;10281;54.406;18.556;2024-01-25T09:31:51;3.40;99.90
20246;DHT22;10281;54.406;18.556;2024-01-25T09:34:18;3.40;99.90
20246;DHT22;10281;54.406;18.556;2024-01-25T09:36:45;3.30;99.90
20246;DHT22;10281;54.406;18.556;2024-01-25T09:39:12;3.30;99.90
20246;DHT22;10281;54.406;18.556;2024-01-25T09:41:40;3.30;99.90
20246;DHT22;10281;54.406;18.556;2024-01-25T09:44:08;3.40;99.90
20246;DHT22;10281;54.406;18.556;2024-01-25T09:46:35;3.40;99.90
20246;DHT22;10281;54.406;18.556;2024-01-25T09:49:02;3.40;99.90
20246;DHT22;10281;54.406;18.556;2024-01-25T09:51:36;3.40;99.90
20246;DHT22;10281;54.406;18.556;2024-01-25T09:54:04;3.50;99.90
20246;DHT22;10281;54.406;18.556;2024-01-25T09:56:32;3.50;99.90
20246;DHT22;10281;54.406;18.556;2024-01-25T09:59:00;3.60;99.90
20246;DHT22;10281;54.406;18.556;2024-01-25T10:01:28;3.70;99.90
20246;DHT22;10281;54.406;18.556;2024-01-25T10:03:54;3.60;99.90
20246;DHT22;10281;54.406;18.556;2024-01-25T10:06:23;3.70;99.90
20246;DHT22;10281;54.406;18.556;2024-01-25T10:08:50;3.60;99.90
20246;DHT22;10281;54.406;18.556;2024-01-25T10:11:18;3.60;99.90
20246;DHT22;10281;54.406;18.556;2024-01-25T10:13:47;3.60;99.90
20246;DHT22;10281;54.406;18.556;2024-01-25T10:16:17;3.60;99.90
20246;DHT22;10281;54.406;18.556;2024-01-25T10:18:46;3.60;99.90
20246;DHT22;10281;54.406;18.556;2024-01-25T10:21:14;3.70;99.90
20246;DHT22;10281;54.406;18.556;2024-01-25T10:23:44;3.70;99.90
20246;DHT22;10281;54.406;18.556;2024-01-25T10:26:13;3.70;99.90
20246;DHT22;10281;54.406;18.556;2024-01-25T10:28:40;3.80;99.90
20246;DHT22;10281;54.406;18.556;2024-01-25T10:31:06;3.80;99.90
20246;DHT22;10281;54.406;18.556;2024-01-25T10:33:34;3.90;99.90
20246;DHT22;10281;54.406;18.556;2024-01-25T10:36:03;3.90;99.90
20246;DHT22;10281;54.406;18.556;2024-01-25T10:38:33;3.90;99.90
20246;DHT22;10281;54.406;18.556;2024-01-25T10:41:03;3.80;99.90
20246;DHT22;10281;54.406;18.556;2024-01-25T10:43:30;3.90;99.90
20246;DHT22;10281;54.406;18.556;2024-01-25T10:45:58;3.80;99.90
20246;DHT22;10281;54.406;18.556;2024-01-25T10:48:26;3.90;99.90
20246;DHT22;10281;54.406;18.556;2024-01-25T10:50:55;3.90;99.90
20246;DHT22;10281;54.406;18.556;2024-01-25T10:53:24;4.00;99.90
20246;DHT22;10281;54.406;18.556;2024-01-25T10:55:51;4.00;99.90
20246;DHT22;10281;54.406;18.556;2024-01-25T10:58:17;4.00;99.90
20246;DHT22;10281;54.406;18.556;2024-01-25T11:00:52;3.90;99.90
20246;DHT22;10281;54.406;18.556;2024-01-25T11:03:29;3.90;99.90
20246;DHT22;10281;54.406;18.556;2024-01-25T11:06:06;4.00;99.90
20246;DHT22;10281;54.406;18.556;2024-01-25T11:08:35;4.00;99.90
20246;DHT22;10281;54.406;18.556;2024-01-25T11:11:06;4.00;99.90
20246;DHT22;10281;54.406;18.556;2024-01-25T11:13:35;4.10;99.90
20246;DHT22;10281;54.406;18.556;2024-01-25T11:18:48;4.00;99.90
20246;DHT22;10281;54.406;18.556;2024-01-25T11:21:55;4.00;99.90
20246;DHT22;10281;54.406;18.556;2024-01-25T11:24:15;4.10;99.90
20246;DHT22;10281;54.406;18.556;2024-01-25T11:26:43;4.20;99.90
20246;DHT22;10281;54.406;18.556;2024-01-25T11:29:13;4.20;99.90
20246;DHT22;10281;54.406;18.556;2024-01-25T11:31:44;4.20;99.90
20246;DHT22;10281;54.406;18.556;2024-01-25T11:34:12;4.20;99.90
20246;DHT22;10281;54.406;18.556;2024-01-25T11:36:39;4.30;99.90
20246;DHT22;10281;54.406;18.556;2024-01-25T11:39:05;4.30;99.90
20246;DHT22;10281;54.406;18.556;2024-01-25T11:41:33;4.20;99.90
20246;DHT22;10281;54.406;18.556;2024-01-25T11:44:01;4.20;99.90
20246;DHT22;10281;54.406;18.556;2024-01-25T11:46:30;4.20;99.90
20246;DHT22;10281;54.406;18.556;2024-01-25T11:48:58;4.10;99.90
20246;DHT22;10281;54.406;18.556;2024-01-25T11:51:25;4.10;99.90
20246;DHT22;10281;54.406;18.556;2024-01-25T11:53:52;4.10;99.90
20246;DHT22;10281;54.406;18.556;2024-01-25T11:56:26;4.10;99.90
20246;DHT22;10281;54.406;18.556;2024-01-25T11:58:51;4.10;99.90
20246;DHT22;10281;54.406;18.556;2024-01-25T12:01:19;4.10;99.90
20246;DHT22;10281;54.406;18.556;2024-01-25T12:03:46;4.10;99.90
20246;DHT22;10281;54.406;18.556;2024-01-25T12:06:13;4.10;99.90
20246;DHT22;10281;54.406;18.556;2024-01-25T12:08:39;4.10;99.90
20246;DHT22;10281;54.406;18.556;2024-01-25T12:11:08;4.10;99.90
20246;DHT22;10281;54.406;18.556;2024-01-25T12:13:38;4.20;99.90
20246;DHT22;10281;54.406;18.556;2024-01-25T12:16:05;4.20;99.90
20246;DHT22;10281;54.406;18.556;2024-01-25T12:18:33;4.10;99.90
20246;DHT22;10281;54.406;18.556;2024-01-25T12:21:03;4.10;99.90
20246;DHT22;10281;54.406;18.556;2024-01-25T12:23:32;4.20;99.90
20246;DHT22;10281;54.406;18.556;2024-01-25T12:26:02;4.20;99.90
20246;DHT22;10281;54.406;18.556;2024-01-25T12:28:30;4.30;99.90
20246;DHT22;10281;54.406;18.556;2024-01-25T12:31:01;4.30;99.90
20246;DHT22;10281;54.406;18.556;2024-01-25T12:33:29;4.20;99.90
20246;DHT22;10281;54.406;18.556;2024-01-25T12:35:56;4.10;99.90
20246;DHT22;10281;54.406;18.556;2024-01-25T12:38:24;4.10;99.90
20246;DHT22;10281;54.406;18.556;2024-01-25T12:40:52;4.10;99.90
20246;DHT22;10281;54.406;18.556;2024-01-25T12:43:19;4.10;99.90
20246;DHT22;10281;54.406;18.556;2024-01-25T12:45:48;4.10;99.90
20246;DHT22;10281;54.406;18.556;2024-01-25T12:48:15;4.00;99.90
20246;DHT22;10281;54.406;18.556;2024-01-25T12:50:42;4.00;99.90
20246;DHT22;10281;54.406;18.556;2024-01-25T12:53:10;3.90;99.90
20246;DHT22;10281;54.406;18.556;2024-01-25T12:55:38;3.90;99.90
20246;DHT22;10281;54.406;18.556;2024-01-25T12:58:05;3.90;99.90
20246;DHT22;10281;54.406;18.556;2024-01-25T13:00:31;4.00;99.90
20246;DHT22;10281;54.406;18.556;2024-01-25T13:02:59;4.00;99.90
20246;DHT22;10281;54.406;18.556;2024-01-25T13:05:29;3.90;99.90
20246;DHT22;10281;54.406;18.556;2024-01-25T13:07:58;3.90;99.90
20246;DHT22;10281;54.406;18.556;2024-01-25T13:10:25;3.80;99.90
20246;DHT22;10281;54.406;18.556;2024-01-25T13:12:51;3.80;99.90
20246;DHT22;10281;54.406;18.556;2024-01-25T13:15:18;3.80;99.90
20246;DHT22;10281;54.406;18.556;2024-01-25T13:17:45;3.80;99.90
20246;DHT22;10281;54.406;18.556;2024-01-25T13:20:12;3.70;99.90
20246;DHT22;10281;54.406;18.556;2024-01-25T13:22:38;3.70;99.90
20246;DHT22;10281;54.406;18.556;2024-01-25T13:25:05;3.70;99.90
20246;DHT22;10281;54.406;18.556;2024-01-25T13:27:32;3.70;99.90
20246;DHT22;10281;54.406;18.556;2024-01-25T13:29:59;3.70;99.90
20246;DHT22;10281;54.406;18.556;2024-01-25T13:32:26;3.70;99.90
20246;DHT22;10281;54.406;18.556;2024-01-25T13:34:52;3.70;99.90
20246;DHT22;10281;54.406;18.556;2024-01-25T13:37:19;3.70;99.90
20246;DHT22;10281;54.406;18.556;2024-01-25T13:39:46;3.60;99.90
20246;DHT22;10281;54.406;18.556;2024-01-25T13:42:12;3.60;99.90
20246;DHT22;10281;54.406;18.556;2024-01-25T13:44:39;3.50;99.90
20246;DHT22;10281;54.406;18.556;2024-01-25T13:47:06;3.50;99.90
20246;DHT22;10281;54.406;18.556;2024-01-25T13:49:33;3.50;99.90
20246;DHT22;10281;54.406;18.556;2024-01-25T13:52:02;3.50;99.90
20246;DHT22;10281;54.406;18.556;2024-01-25T13:54:29;3.50;99.90
20246;DHT22;10281;54.406;18.556;2024-01-25T13:56:56;3.50;99.90
20246;DHT22;10281;54.406;18.556;2024-01-25T13:59:23;3.50;99.90
20246;DHT22;10281;54.406;18.556;2024-01-25T14:01:52;3.40;99.90
20246;DHT22;10281;54.406;18.556;2024-01-25T14:04:18;3.40;99.90
20246;DHT22;10281;54.406;18.556;2024-01-25T14:06:45;3.30;99.90
20246;DHT22;10281;54.406;18.556;2024-01-25T14:09:12;3.30;99.90
20246;DHT22;10281;54.406;18.556;2024-01-25T14:11:38;3.20;99.90
20246;DHT22;10281;54.406;18.556;2024-01-25T14:14:05;3.20;99.90
20246;DHT22;10281;54.406;18.556;2024-01-25T14:16:32;3.20;99.90
20246;DHT22;10281;54.406;18.556;2024-01-25T14:18:58;3.20;99.90
20246;DHT22;10281;54.406;18.556;2024-01-25T14:21:25;3.20;99.90
20246;DHT22;10281;54.406;18.556;2024-01-25T14:23:52;3.20;99.90
20246;DHT22;10281;54.406;18.556;2024-01-25T14:26:18;3.10;99.90
20246;DHT22;10281;54.406;18.556;2024-01-25T14:28:45;3.10;99.90
20246;DHT22;10281;54.406;18.556;2024-01-25T14:31:11;3.10;99.90
20246;DHT22;10281;54.406;18.556;2024-01-25T14:33:38;3.10;99.90
20246;DHT22;10281;54.406;18.556;2024-01-25T14:36:06;3.10;99.90
20246;DHT22;10281;54.406;18.556;2024-01-25T14:38:32;3.10;99.90
20246;DHT22;10281;54.406;18.556;2024-01-25T14:41:00;3.20;99.90
20246;DHT22;10281;54.406;18.556;2024-01-25T14:43:26;3.10;99.90
20246;DHT22;10281;54.406;18.556;2024-01-25T14:45:53;3.20;99.90
20246;DHT22;10281;54.406;18.556;2024-01-25T14:48:20;3.20;99.90
20246;DHT22;10281;54.406;18.556;2024-01-25T14:50:46;3.20;99.90
20246;DHT22;10281;54.406;18.556;2024-01-25T14:53:13;3.20;99.90
20246;DHT22;10281;54.406;18.556;2024-01-25T14:55:39;3.00;99.90
20246;DHT22;10281;54.406;18.556;2024-01-25T14:58:06;3.00;99.90
20246;DHT22;10281;54.406;18.556;2024-01-25T15:00:34;2.90;99.90
20246;DHT22;10281;54.406;18.556;2024-01-25T15:03:01;2.90;99.90
20246;DHT22;10281;54.406;18.556;2024-01-25T15:05:27;2.90;99.90
20246;DHT22;10281;54.406;18.556;2024-01-25T15:07:54;2.90;99.90
20246;DHT22;10281;54.406;18.556;2024-01-25T15:10:20;2.90;99.90
20246;DHT22;10281;54.406;18.556;2024-01-25T15:12:47;2.90;99.90
20246;DHT22;10281;54.406;18.556;2024-01-25T15:15:15;2.90;99.90
20246;DHT22;10281;54.406;18.556;2024-01-25T15:17:42;2.90;99.90
20246;DHT22;10281;54.406;18.556;2024-01-25T15:20:09;3.00;99.90
20246;DHT22;10281;54.406;18.556;2024-01-25T15:22:36;3.00;99.90
20246;DHT22;10281;54.406;18.556;2024-01-25T15:25:04;2.90;99.90
20246;DHT22;10281;54.406;18.556;2024-01-25T15:27:31;2.90;99.90
20246;DHT22;10281;54.406;18.556;2024-01-25T15:29:58;2.90;99.90
20246;DHT22;10281;54.406;18.556;2024-01-25T15:32:24;2.90;99.90